Grant Co Regional/Ogilvie Field


Codes: KGCD/JDA
Name: Grant Co Regional/Ogilvie Field
City: John Day
Country: United States
Elevation: 3703 ft.
Wikipedia:

Photos at Grant Co Regional/Ogilvie Field


   Photos courtesy of SpottingLog. You can add your own sightings and photos by signing up for a free trial today.



No photos found.

Weather at Grant Co Regional/Ogilvie Field


Time (UTC)DescriptionTempratureWindCloud coverageVisibilityPressureHumidity
16-Jun-2024 00:00Scattered Clouds17°C16 mph, NW40%10000m1018hPa23%
16-Jun-2024 03:00Broken Clouds15°C9 mph, NW60%10000m1018hPa30%
16-Jun-2024 06:00Broken Clouds9°C4 mph, N66%10000m1020hPa57%
16-Jun-2024 09:00Few Clouds3°C2 mph, N20%10000m1021hPa86%
16-Jun-2024 12:00Scattered Clouds2°C0 mph, E28%10000m1021hPa91%
16-Jun-2024 15:00Broken Clouds7°C2 mph, SE75%10000m1018hPa64%
16-Jun-2024 18:00Overcast Clouds13°C2 mph, W85%10000m1013hPa30%
16-Jun-2024 21:00Overcast Clouds17°C9 mph, NW100%10000m1009hPa18%
17-Jun-2024 00:00Overcast Clouds15°C16 mph, NW100%10000m1008hPa33%
17-Jun-2024 03:00Light Rain8°C9 mph, N100%10000m1011hPa71%
17-Jun-2024 06:00Light Rain5°C4 mph, NW99%10000m1013hPa93%
17-Jun-2024 09:00Light Rain5°C4 mph, W100%7600m1013hPa93%
17-Jun-2024 12:00Light Snow4°C4 mph, NW97%1634m1015hPa96%
17-Jun-2024 15:00Light Rain6°C7 mph, NW99%4378m1016hPa85%
17-Jun-2024 18:00Light Rain7°C7 mph, W96%10000m1017hPa72%
17-Jun-2024 21:00Overcast Clouds11°C7 mph, NW100%10000m1015hPa49%
18-Jun-2024 00:00Broken Clouds14°C7 mph, NW81%10000m1013hPa37%
18-Jun-2024 03:00Broken Clouds12°C7 mph, NW76%10000m1014hPa53%
18-Jun-2024 06:00Scattered Clouds6°C2 mph, NE46%10000m1017hPa83%
18-Jun-2024 09:00Clear Sky5°C2 mph, E1%10000m1018hPa88%
18-Jun-2024 12:00Clear Sky4°C2 mph, E4%10000m1019hPa90%
18-Jun-2024 15:00Clear Sky11°C2 mph, SE0%10000m1016hPa59%
18-Jun-2024 18:00Clear Sky18°C2 mph, SE0%10000m1014hPa33%
18-Jun-2024 21:00Clear Sky23°C2 mph, NE1%10000m1011hPa21%
19-Jun-2024 00:00Few Clouds22°C2 mph, N20%10000m1010hPa19%
19-Jun-2024 03:00Overcast Clouds17°C4 mph, E100%10000m1011hPa39%
19-Jun-2024 06:00Broken Clouds11°C4 mph, E78%10000m1014hPa48%
19-Jun-2024 09:00Overcast Clouds10°C4 mph, E99%10000m1014hPa53%
19-Jun-2024 12:00Overcast Clouds9°C4 mph, E98%10000m1015hPa53%
19-Jun-2024 15:00Overcast Clouds16°C7 mph, E100%10000m1012hPa33%
19-Jun-2024 18:00Overcast Clouds22°C9 mph, E100%10000m1010hPa20%
19-Jun-2024 21:00Overcast Clouds24°C7 mph, SE100%10000m1009hPa18%
20-Jun-2024 00:00Overcast Clouds24°C11 mph, SE100%10000m1009hPa21%
20-Jun-2024 03:00Overcast Clouds19°C4 mph, NE95%10000m1009hPa38%
20-Jun-2024 06:00Broken Clouds13°C4 mph, E75%10000m1011hPa49%
20-Jun-2024 09:00Scattered Clouds12°C4 mph, E25%10000m1012hPa51%
20-Jun-2024 12:00Broken Clouds11°C2 mph, NE62%10000m1012hPa49%
20-Jun-2024 15:00Broken Clouds19°C2 mph, NE64%10000m1011hPa33%
20-Jun-2024 18:00Scattered Clouds26°C2 mph, N42%10000m1009hPa20%
20-Jun-2024 21:00Overcast Clouds29°C7 mph, NW89%10000m1007hPa17%